• Join FlightAware (Why Join?)
  • Login
  • US Flag 
11:52PM EDT


 

Airport Tracker/Info


-or-


 

Live Flight TrackerFlight Track Log ✈ TCF653 ✈ 03-May-2013 ✈ KORD - KCMH

Flight Track Log - Related Links

Times and Time Zones

All times are in EDT time to prevent confusion due to time zone crossing. See the TCF653 flight status page for this flight to view local times or setup timezone preferences in your user account.

Time Position Orientation Groundspeed Altitude Reporting Facility
EDT Latitude Longitude Course Direction KTS MPH feet Rate Location/Type
01:31AM 42.0167 -87.9500 95° East 176 203 1,900  Level Chicago TRACON
01:32AM 42.0667 -88.0000 323° Northwest 264 304 3,700 1,500 Climbing Chicago TRACON
01:33AM 42.1000 -87.9333 56° Northeast 268 308 5,000 540 Climbing Chicago TRACON
01:35AM 42.0917 -87.7464 93° East 250 288 5,400 1,200 Climbing Chicago Center
01:36AM 42.0725 -87.6544 106° East 252 290 8,800 2,580 Climbing Chicago Center
01:37AM 41.9363 -87.1745 95° East  Level FlightAware Approximate
01:37AM 42.0550 -87.5481 102° East 282 325 10,700  Level Chicago Center
01:38AM 42.0367 -87.4192 101° East 339 390 12,800 2,340 Climbing Chicago Center
01:39AM 42.0175 -87.2853 101° East 358 412 15,500 2,520 Climbing Chicago Center
01:40AM 41.9975 -87.1500 101° East 367 422 17,900 2,220 Climbing Chicago Center
01:41AM 41.9775 -87.0147 101° East 371 427 20,000 1,680 Climbing Chicago Center
01:42AM 41.9569 -86.8708 101° East 388 447 21,400 1,380 Climbing Chicago Center
01:43AM 41.9333 -86.7203 102° East 409 471 22,800 780 Climbing Chicago Center
01:44AM 41.8697 -86.5719 120° Southeast 417 480 23,000 60 Climbing Chicago Center
01:45AM 41.8072 -86.4428 123° Southeast 415 478 23,000  Level Chicago Center
01:46AM 41.7456 -86.3131 122° Southeast 415 478 23,000  Level Chicago Center
01:47AM 41.6814 -86.1836 124° Southeast 418 481 23,000  Level Chicago Center
01:48AM 41.6206 -86.0569 123° Southeast 410 472 23,000  Level Chicago Center
01:49AM 41.5592 -85.9303 123° Southeast 410 472 23,000  Level Chicago Center
01:50AM 41.4967 -85.8036 123° Southeast 410 472 23,000  Level Chicago Center
01:51AM 41.4339 -85.6778 124° Southeast 412 474 23,000  Level Chicago Center
01:52AM 41.3728 -85.5511 123° Southeast 414 476 23,000  Level Chicago Center
01:53AM 41.3108 -85.4272 124° Southeast 409 471 23,000  Level Chicago Center
01:54AM 41.2481 -85.3003 123° Southeast 413 475 23,000  Level Chicago Center
01:55AM 41.1853 -85.1744 124° Southeast 412 474 23,000  Level Chicago Center
01:57AM 41.1242 -85.0500 123° Southeast 408 470 23,000  Level Chicago Center
01:58AM 41.0622 -84.9289 124° Southeast 402 463 23,000  Level Chicago Center
02:00AM 40.9411 -84.6883 124° Southeast 394 453 23,000  Level Chicago Center
02:01AM 40.8789 -84.5694 125° Southeast 394 453 23,000  Level Chicago Center
02:01AM 40.8492 -84.5092 123° Southeast 390 449 23,000  Level Indianapolis Center
02:02AM 40.8192 -84.4517 125° Southeast 390 449 23,000  Level Chicago Center
02:03AM 40.7581 -84.3336 124° Southeast 389 448 23,000  Level Chicago Center
02:03AM 40.7256 -84.2703 124° Southeast 391 450 23,000  Level Indianapolis Center
02:04AM 40.6639 -84.1511 124° Southeast 389 448 23,000  Level Indianapolis Center
02:05AM 40.6031 -84.0319 124° Southeast 389 448 23,000 -960 Level Indianapolis Center
02:06AM 40.5400 -83.9131 125° Southeast 391 450 21,100 -2,100 Descending Indianapolis Center
02:07AM 40.4739 -83.7922 126° Southeast 384 442 19,000 -2,100 Descending Indianapolis Center
02:08AM 40.4183 -83.6808 123° Southeast 379 436 17,000 -2,220 Descending Indianapolis Center
02:09AM 40.3536 -83.5778 129° Southeast 366 421 14,500 -2,580 Descending Indianapolis Center
02:10AM 40.2928 -83.4781 129° Southeast 351 404 11,900 -2,160 Descending Indianapolis Center
02:11AM 40.2358 -83.3889 130° Southeast 322 371 10,200 -1,560 Descending Indianapolis Center
02:12AM 40.1881 -83.3136 130° Southeast 270 311 8,800 -1,800 Descending Indianapolis Center
02:13AM 40.1419 -83.2386 129° Southeast 261 300 6,600 -2,040 Descending Indianapolis Center
02:14AM 40.0972 -83.1667 129° Southeast 257 296 4,800 -1,500 Descending Indianapolis Center
02:15AM 40.0683 -83.1200 129° Southeast 252 290 3,600 -1,200 Descending Indianapolis Center
02:16AM 40.0219 -83.0486 130° Southeast 232 267 2,500 -840 Descending Indianapolis Center
02:17AM 40.0078 -82.9942 109° East 182 209 2,000 -600 Descending Indianapolis Center
02:18AM 40.0053 -82.9467 94° East 143 165 1,400 -540 Descending Indianapolis Center
02:19AM 40.0036 -82.8992 93° East 135 155 1,000 -420 Descending Indianapolis Center
02:21AM 39.9980 -82.8920 131° Southeast  Level Estimated